Time;durP1;ratioP1;P1;durP2;ratioP2;P2;SDS_P1;SDS_P2;PMS_P1;PMS_P2;Temp;Humidity;BMP_temperature;BMP_pressure;BME280_temperature;BME280_humidity;BME280_pressure;Samples;Min_cycle;Max_cycle;Signal;HPM_P1;HPM_P2
2023/05/04 00:02:17;;;;;;;2.33;0.30;;;;;;;3.03;62.56;102793.25;4990642;28;20073;-77
2023/05/04 00:04:44;;;;;;;0.50;0.30;;;;;;;3.02;62.36;102794.09;4944498;28;20054;-71
2023/05/04 00:07:11;;;;;;;1.13;0.40;;;;;;;3.00;62.41;102798.28;4981640;28;20140;-71
2023/05/04 00:09:38;;;;;;;1.10;0.32;;;;;;;3.00;62.57;102808.59;4988871;28;20050;-71
2023/05/04 00:12:06;;;;;;;0.57;0.30;;;;;;;2.98;62.79;102799.91;4989178;28;20099;-71
2023/05/04 00:14:33;;;;;;;1.65;0.45;;;;;;;2.96;62.73;102807.59;4981944;28;20499;-71
2023/05/04 00:17:01;;;;;;;1.08;0.40;;;;;;;2.95;62.95;102803.22;4987707;28;20054;-71
2023/05/04 00:19:28;;;;;;;4.28;0.30;;;;;;;2.91;62.54;102807.38;4988846;28;20046;-71
2023/05/04 00:21:55;;;;;;;0.50;0.30;;;;;;;2.91;62.67;102809.97;4989047;28;20057;-71
2023/05/04 00:24:22;;;;;;;3.70;0.50;;;;;;;2.90;62.55;102808.19;4987400;28;20699;-71
2023/05/04 00:26:49;;;;;;;1.20;0.50;;;;;;;2.89;62.55;102805.53;4988219;28;20060;-72
2023/05/04 00:29:17;;;;;;;0.70;0.30;;;;;;;2.88;62.71;102804.66;4987165;28;20066;-71
2023/05/04 00:31:44;;;;;;;1.27;0.40;;;;;;;2.87;63.31;102796.81;4987452;28;20737;-71
2023/05/04 00:34:11;;;;;;;1.15;0.40;;;;;;;2.85;62.58;102799.34;4985905;28;20050;-71
2023/05/04 00:36:38;;;;;;;2.58;0.32;;;;;;;2.84;63.38;102796.69;4988242;28;20080;-70
2023/05/04 00:39:05;;;;;;;5.28;0.40;;;;;;;2.83;63.04;102795.81;4986625;28;20058;-71
2023/05/04 00:41:31;;;;;;;0.98;0.32;;;;;;;2.82;62.71;102799.22;4988870;28;20042;-71
2023/05/04 00:44:01;;;;;;;1.13;0.40;;;;;;;2.81;62.65;102791.38;4984619;28;20430;-71
2023/05/04 00:46:30;;;;;;;0.85;0.45;;;;;;;2.79;62.78;102793.91;4988949;28;20474;-71
2023/05/04 00:48:58;;;;;;;0.88;0.40;;;;;;;2.79;63.02;102798.16;4988008;28;20081;-71
2023/05/04 00:51:25;;;;;;;1.83;0.40;;;;;;;2.77;63.32;102794.66;4988504;28;20046;-71
2023/05/04 00:53:54;;;;;;;1.60;0.47;;;;;;;2.75;63.51;102796.28;4985317;28;20093;-71
2023/05/04 00:56:23;;;;;;;0.70;0.38;;;;;;;2.73;63.19;102798.78;4987818;28;20054;-71
2023/05/04 00:58:53;;;;;;;0.80;0.40;;;;;;;2.70;62.89;102794.38;4987908;28;20101;-72
2023/05/04 01:01:20;;;;;;;4.22;0.50;;;;;;;2.67;63.07;102798.50;4982539;28;20057;-71
2023/05/04 01:03:48;;;;;;;1.42;0.40;;;;;;;2.67;62.61;102798.50;4984111;28;20458;-71
2023/05/04 01:06:24;;;;;;;1.05;0.30;;;;;;;2.65;62.88;102800.16;4986740;28;20057;-71
2023/05/04 01:08:58;;;;;;;0.50;0.40;;;;;;;2.61;62.78;102796.50;4985328;28;20050;-71
2023/05/04 01:11:32;;;;;;;1.02;0.35;;;;;;;2.61;63.15;102813.69;4986640;28;20057;-71
2023/05/04 01:14:01;;;;;;;4.97;0.32;;;;;;;2.57;62.80;102807.50;4983435;28;20050;-71
2023/05/04 01:16:28;;;;;;;3.13;0.63;;;;;;;2.56;63.25;102807.44;4987336;28;20050;-74
2023/05/04 01:18:57;;;;;;;1.30;0.40;;;;;;;2.54;63.46;102801.34;4985701;28;20061;-74
2023/05/04 01:21:24;;;;;;;1.08;0.50;;;;;;;2.51;63.25;102811.50;4988101;28;20053;-74
2023/05/04 01:23:52;;;;;;;1.85;0.40;;;;;;;2.48;63.43;102805.38;4987050;28;20054;-74
2023/05/04 01:26:24;;;;;;;1.40;0.30;;;;;;;2.45;63.13;102810.41;4980574;28;20694;-74
2023/05/04 01:29:00;;;;;;;1.48;0.40;;;;;;;2.44;63.28;102811.19;4986161;28;20510;-74
2023/05/04 01:31:27;;;;;;;1.63;0.40;;;;;;;2.43;63.13;102827.50;4986577;28;20469;-74
2023/05/04 01:33:56;;;;;;;0.65;0.38;;;;;;;2.40;63.30;102835.09;4986635;28;20069;-75
2023/05/04 01:36:23;;;;;;;1.27;0.40;;;;;;;2.38;63.51;102839.28;4984727;28;20487;-74
2023/05/04 01:38:53;;;;;;;1.05;0.30;;;;;;;2.32;63.36;102823.50;4985955;28;20418;-73
2023/05/04 01:41:21;;;;;;;2.30;0.40;;;;;;;2.33;63.55;102840.75;4984411;28;20054;-74
2023/05/04 01:43:48;;;;;;;3.90;0.40;;;;;;;2.31;63.34;102844.97;4986182;28;20659;-74
2023/05/04 01:46:15;;;;;;;1.20;0.45;;;;;;;2.31;63.83;102839.81;4985454;28;20094;-74
2023/05/04 01:48:42;;;;;;;2.97;0.52;;;;;;;2.30;63.72;102848.34;4986069;28;20415;-73
2023/05/04 01:51:09;;;;;;;2.95;0.52;;;;;;;2.29;63.64;102846.56;4987308;28;20606;-74
2023/05/04 01:53:35;;;;;;;1.13;0.38;;;;;;;2.27;64.10;102842.16;4983526;28;20510;-73
2023/05/04 01:56:02;;;;;;;4.65;0.57;;;;;;;2.29;64.08;102850.84;4985892;28;20100;-74
2023/05/04 01:58:31;;;;;;;1.77;0.60;;;;;;;2.27;63.73;102858.50;4986442;28;20050;-74
2023/05/04 02:00:58;;;;;;;2.20;0.50;;;;;;;2.28;64.78;102855.13;4986146;28;20042;-74
2023/05/04 02:03:25;;;;;;;1.38;0.70;;;;;;;2.28;64.79;102852.56;4987798;28;20062;-75
2023/05/04 02:05:52;;;;;;;2.97;0.77;;;;;;;2.30;64.60;102855.19;4987020;28;20042;-74
2023/05/04 02:08:19;;;;;;;3.42;1.10;;;;;;;2.32;65.04;102861.31;4982774;28;20050;-74
2023/05/04 02:10:46;;;;;;;2.05;0.63;;;;;;;2.33;64.90;102858.78;4984828;28;20478;-74
2023/05/04 02:13:13;;;;;;;1.52;0.47;;;;;;;2.34;65.12;102858.00;4986152;28;20054;-75
2023/05/04 02:15:41;;;;;;;3.15;0.75;;;;;;;2.36;64.93;102856.41;4986313;28;20436;-74
2023/05/04 02:18:08;;;;;;;3.70;0.73;;;;;;;2.37;65.04;102846.97;4985040;28;20054;-74
2023/05/04 02:20:35;;;;;;;1.70;0.47;;;;;;;2.40;64.79;102844.53;4987098;28;20054;-74
2023/05/04 02:23:01;;;;;;;2.92;0.60;;;;;;;2.41;65.78;102836.84;4987284;28;20053;-74
2023/05/04 02:25:28;;;;;;;3.00;0.70;;;;;;;2.43;65.17;102840.38;4983045;28;20054;-74
2023/05/04 02:27:55;;;;;;;4.75;0.60;;;;;;;2.46;65.42;102840.53;4987302;28;20795;-75
2023/05/04 02:30:22;;;;;;;5.75;0.50;;;;;;;2.50;64.79;102846.72;4986636;28;20057;-73
2023/05/04 02:32:51;;;;;;;0.85;0.47;;;;;;;2.52;65.74;102849.38;4988229;28;20053;-74
2023/05/04 02:35:17;;;;;;;2.63;0.55;;;;;;;2.53;65.48;102856.31;4983717;28;20046;-74
2023/05/04 02:37:44;;;;;;;2.33;0.60;;;;;;;2.55;65.17;102846.94;4986301;28;20053;-74
2023/05/04 02:40:13;;;;;;;2.45;0.55;;;;;;;2.57;65.72;102850.50;4985843;28;20604;-74
2023/05/04 02:42:39;;;;;;;3.58;0.80;;;;;;;2.58;65.87;102853.13;4980346;28;20818;-74
2023/05/04 02:45:08;;;;;;;2.72;0.63;;;;;;;2.61;65.64;102852.41;4988137;28;20043;-70
2023/05/04 02:47:35;;;;;;;3.38;1.00;;;;;;;2.63;65.62;102845.63;4984587;28;20130;-70
2023/05/04 02:50:03;;;;;;;2.30;0.60;;;;;;;2.65;65.62;102852.63;4985548;28;20058;-70
2023/05/04 02:52:30;;;;;;;1.42;0.50;;;;;;;2.68;65.67;102850.19;4984865;28;20046;-70
2023/05/04 02:54:57;;;;;;;1.15;0.50;;;;;;;2.69;65.53;102854.53;4986381;28;20050;-80
2023/05/04 02:57:24;;;;;;;3.22;0.55;;;;;;;2.73;65.32;102855.53;4990666;28;20050;-79
2023/05/04 02:59:51;;;;;;;3.97;0.60;;;;;;;2.75;65.63;102853.94;4988313;28;20054;-79
2023/05/04 03:02:18;;;;;;;5.47;0.40;;;;;;;2.77;65.35;102839.41;4987844;28;20050;-79
2023/05/04 03:04:44;;;;;;;2.05;0.40;;;;;;;2.79;65.22;102848.13;4990385;28;20047;-79
2023/05/04 03:07:13;;;;;;;1.45;0.30;;;;;;;2.82;65.24;102839.63;4990532;28;20047;-79
2023/05/04 03:09:40;;;;;;;2.58;0.73;;;;;;;2.83;65.13;102847.44;4989281;28;20488;-80
2023/05/04 03:12:06;;;;;;;0.75;0.30;;;;;;;2.85;65.88;102848.41;4987497;28;20491;-80
2023/05/04 03:14:33;;;;;;;2.58;0.35;;;;;;;2.87;65.02;102854.50;4984432;28;20507;-80
2023/05/04 03:17:00;;;;;;;0.40;0.30;;;;;;;2.88;65.14;102858.88;4989991;28;20076;-79
2023/05/04 03:19:27;;;;;;;1.00;0.55;;;;;;;2.90;65.38;102854.66;4986792;28;20050;-80
2023/05/04 03:21:54;;;;;;;1.98;0.35;;;;;;;2.91;65.04;102861.59;4991901;28;20046;-79
2023/05/04 03:24:22;;;;;;;2.75;0.38;;;;;;;2.92;64.98;102855.59;4992610;28;20050;-79
2023/05/04 03:26:49;;;;;;;1.02;0.30;;;;;;;2.94;65.65;102858.25;4988990;28;20050;-79
2023/05/04 03:29:16;;;;;;;1.60;0.40;;;;;;;2.96;65.18;102863.47;4990636;28;20050;-79
2023/05/04 03:31:43;;;;;;;0.82;0.40;;;;;;;2.96;65.40;102863.47;4992252;28;20046;-79
2023/05/04 03:34:11;;;;;;;1.90;0.63;;;;;;;2.98;64.77;102862.75;4993166;28;20045;-79
2023/05/04 03:36:38;;;;;;;1.48;0.40;;;;;;;2.99;65.10;102868.78;4993508;28;20046;-79
2023/05/04 03:39:05;;;;;;;1.38;0.30;;;;;;;3.00;65.02;102866.28;4991989;28;20483;-79
2023/05/04 03:41:33;;;;;;;0.98;0.40;;;;;;;3.00;64.69;102861.13;4991782;28;20101;-80
2023/05/04 03:44:00;;;;;;;0.75;0.52;;;;;;;3.01;65.41;102868.03;4992171;28;20046;-80
2023/05/04 03:46:27;;;;;;;0.80;0.30;;;;;;;3.02;64.67;102867.25;4993902;28;20053;-79
2023/05/04 03:48:54;;;;;;;2.05;0.30;;;;;;;3.03;64.94;102860.38;4991427;28;20054;-79
2023/05/04 03:51:21;;;;;;;1.23;0.40;;;;;;;3.03;64.65;102871.59;4994584;28;20054;-80
2023/05/04 03:53:48;;;;;;;1.27;0.30;;;;;;;3.04;64.89;102872.47;4992475;28;20051;-80
2023/05/04 03:56:15;;;;;;;0.98;0.30;;;;;;;3.02;65.20;102868.94;4990074;28;20494;-80
2023/05/04 03:58:43;;;;;;;3.53;0.30;;;;;;;3.04;65.24;102880.22;4993244;28;20601;-79
2023/05/04 04:01:10;;;;;;;0.50;0.30;;;;;;;3.01;64.99;102874.91;4988613;28;20057;-79
2023/05/04 04:03:37;;;;;;;0.50;0.30;;;;;;;3.05;65.04;102869.09;4992599;28;20053;-79
2023/05/04 04:06:07;;;;;;;2.42;0.50;;;;;;;3.06;65.11;102868.28;4992857;28;20042;-80
2023/05/04 04:08:34;;;;;;;6.65;0.55;;;;;;;3.07;65.41;102875.19;4994295;28;20042;-80
2023/05/04 04:11:01;;;;;;;1.52;0.40;;;;;;;3.08;66.06;102871.81;4992174;28;20058;-79
2023/05/04 04:13:28;;;;;;;1.83;0.40;;;;;;;3.10;65.99;102876.25;4990618;28;20054;-79
2023/05/04 04:15:56;;;;;;;0.82;0.30;;;;;;;3.11;65.69;102880.56;4989563;28;20046;-79
2023/05/04 04:18:23;;;;;;;0.73;0.40;;;;;;;3.14;65.98;102880.72;4988735;28;20046;-79
2023/05/04 04:20:50;;;;;;;3.22;0.40;;;;;;;3.10;65.74;102872.75;4988747;28;20049;-80
2023/05/04 04:23:18;;;;;;;1.35;0.40;;;;;;;3.23;65.64;102884.53;4993920;28;20042;-80
2023/05/04 04:25:45;;;;;;;2.05;0.40;;;;;;;3.29;65.64;102885.69;4991745;28;20054;-80
2023/05/04 04:28:12;;;;;;;0.73;0.60;;;;;;;3.35;65.20;102887.66;4990349;28;20856;-80
2023/05/04 04:30:39;;;;;;;2.20;0.30;;;;;;;3.44;65.84;102894.94;4990208;28;20038;-82
2023/05/04 04:33:08;;;;;;;2.65;0.40;;;;;;;3.50;65.77;102893.53;4991267;28;20054;-81
2023/05/04 04:35:35;;;;;;;1.40;0.60;;;;;;;3.57;65.44;102902.44;4988321;28;20054;-80
2023/05/04 04:38:02;;;;;;;0.82;0.47;;;;;;;3.66;65.27;102896.78;4991981;28;20038;-80
2023/05/04 04:40:29;;;;;;;0.40;0.30;;;;;;;3.65;65.08;102892.44;4992541;28;20053;-81
2023/05/04 04:42:56;;;;;;;0.63;0.30;;;;;;;3.79;65.21;102899.97;4989180;28;20046;-81
2023/05/04 04:45:23;;;;;;;0.55;0.30;;;;;;;3.88;65.22;102908.94;4990522;28;20054;-80
2023/05/04 04:47:50;;;;;;;4.43;0.40;;;;;;;3.96;65.14;102905.00;4993319;28;20053;-81
2023/05/04 04:50:19;;;;;;;1.90;0.50;;;;;;;4.05;64.46;102915.72;4991863;28;20046;-82
2023/05/04 04:52:46;;;;;;;1.05;0.40;;;;;;;4.15;64.55;102910.09;4994265;28;20492;-83
2023/05/04 04:55:14;;;;;;;2.47;0.40;;;;;;;4.24;64.27;102910.50;4987587;28;20042;-83
2023/05/04 04:57:41;;;;;;;2.45;0.50;;;;;;;4.34;63.22;102906.59;4992900;28;20133;-83
2023/05/04 05:00:09;;;;;;;3.92;0.50;;;;;;;4.45;62.96;102912.22;4993126;28;20491;-83
2023/05/04 05:02:36;;;;;;;1.63;0.60;;;;;;;4.52;62.75;102903.88;4983735;28;20070;-82
2023/05/04 05:05:03;;;;;;;0.47;0.30;;;;;;;4.62;62.72;102903.44;4990403;28;20112;-82
2023/05/04 05:07:32;;;;;;;2.65;0.40;;;;;;;4.74;62.03;102915.97;4990922;28;20046;-83
2023/05/04 05:09:59;;;;;;;0.50;0.40;;;;;;;4.83;61.66;102912.88;4993102;28;20097;-81
2023/05/04 05:12:26;;;;;;;1.50;0.40;;;;;;;4.91;61.45;102922.69;4981125;28;20049;-82
2023/05/04 05:14:52;;;;;;;1.02;0.40;;;;;;;4.99;60.98;102920.41;4983508;28;20050;-83
2023/05/04 05:17:20;;;;;;;1.30;0.95;;;;;;;5.06;60.80;102922.41;4986034;28;20692;-83
2023/05/04 05:19:46;;;;;;;0.88;0.40;;;;;;;5.13;60.61;102924.44;4983142;28;20054;-83
2023/05/04 05:22:13;;;;;;;0.88;0.30;;;;;;;5.19;59.23;102914.28;4977288;28;20050;-82
2023/05/04 05:24:42;;;;;;;1.70;0.68;;;;;;;5.25;59.31;102917.94;4991415;28;20038;-82
2023/05/04 05:27:09;;;;;;;0.65;0.30;;;;;;;5.25;59.79;102907.59;4988776;28;20050;-82
2023/05/04 05:29:36;;;;;;;2.90;0.40;;;;;;;5.32;59.41;102915.66;4993249;28;20050;-81
2023/05/04 05:32:03;;;;;;;0.30;0.20;;;;;;;5.37;59.09;102919.28;4988005;28;20064;-82
2023/05/04 05:34:30;;;;;;;3.97;0.40;;;;;;;5.41;58.44;102920.28;4990754;28;20097;-83
2023/05/04 05:36:57;;;;;;;0.65;0.30;;;;;;;5.44;58.48;102924.72;4992465;28;20398;-82
2023/05/04 05:39:24;;;;;;;1.05;0.30;;;;;;;5.45;58.34;102916.97;4991288;28;20046;-82
2023/05/04 05:41:56;;;;;;;0.38;0.30;;;;;;;5.47;58.15;102919.63;4993917;28;20199;-82
2023/05/04 05:44:23;;;;;;;0.70;0.30;;;;;;;5.50;57.88;102923.22;4988959;28;20050;-83
2023/05/04 05:46:50;;;;;;;0.75;0.30;;;;;;;5.51;57.62;102929.28;4992639;28;20058;-82
2023/05/04 05:49:16;;;;;;;0.85;0.38;;;;;;;5.51;57.58;102927.56;4990958;28;20494;-83
2023/05/04 05:51:43;;;;;;;3.03;0.40;;;;;;;5.54;57.34;102931.97;4990474;28;20506;-82
2023/05/04 05:54:10;;;;;;;3.83;0.63;;;;;;;5.55;56.52;102939.84;4993062;28;20399;-82
2023/05/04 05:56:37;;;;;;;3.58;0.90;;;;;;;5.58;56.37;102928.69;4987011;28;20495;-82
2023/05/04 05:59:05;;;;;;;0.98;0.43;;;;;;;5.59;56.02;102933.03;4991265;28;20049;-82
2023/05/04 06:01:32;;;;;;;3.55;0.75;;;;;;;5.61;55.74;102940.06;4989366;28;20038;-82
2023/05/04 06:03:59;;;;;;;3.30;1.15;;;;;;;5.65;56.04;102935.84;4989608;28;20054;-81
2023/05/04 06:06:26;;;;;;;4.55;1.08;;;;;;;5.66;56.13;102937.59;4990457;28;20050;-82
2023/05/04 06:08:53;;;;;;;2.05;0.70;;;;;;;5.68;56.20;102948.06;4990543;28;20049;-83
2023/05/04 06:11:20;;;;;;;0.88;0.40;;;;;;;5.69;55.65;102949.81;4991103;28;20487;-83
2023/05/04 06:13:46;;;;;;;1.67;0.50;;;;;;;5.70;55.58;102949.88;4992053;28;20495;-83
2023/05/04 06:16:15;;;;;;;1.00;0.50;;;;;;;5.71;55.30;102951.63;4992136;28;20049;-82
2023/05/04 06:18:42;;;;;;;1.67;0.70;;;;;;;5.73;54.99;102954.28;4990879;28;20890;-82
2023/05/04 06:21:09;;;;;;;3.05;0.40;;;;;;;5.73;53.61;102949.09;4985652;28;20447;-82
2023/05/04 06:23:36;;;;;;;2.78;0.40;;;;;;;5.74;53.82;102950.88;4992905;28;20046;-83
2023/05/04 06:26:04;;;;;;;2.08;0.50;;;;;;;5.77;54.46;102962.22;4989072;28;20458;-76
2023/05/04 06:28:31;;;;;;;1.23;0.50;;;;;;;5.81;54.53;102964.13;4986276;28;20047;-77
2023/05/04 06:30:58;;;;;;;1.88;0.65;;;;;;;5.82;54.60;102970.19;4990226;28;20054;-81
2023/05/04 06:33:26;;;;;;;1.85;0.47;;;;;;;5.83;53.77;102969.34;4989721;28;20050;-80
2023/05/04 06:35:53;;;;;;;0.68;0.40;;;;;;;5.85;54.05;102972.88;4988751;28;20595;-79
2023/05/04 06:38:20;;;;;;;0.47;0.30;;;;;;;5.88;53.77;102982.50;4989020;28;20049;-81
2023/05/04 06:40:47;;;;;;;1.15;0.30;;;;;;;5.89;53.08;102972.19;4988471;28;20051;-83
2023/05/04 06:43:14;;;;;;;0.60;0.30;;;;;;;5.92;53.64;102973.97;4986262;28;20050;-81
2023/05/04 06:45:42;;;;;;;2.00;0.38;;;;;;;5.93;53.42;102973.16;4988777;28;20053;-81
2023/05/04 06:48:09;;;;;;;1.17;0.30;;;;;;;5.95;53.25;102977.63;4991379;28;20042;-82
2023/05/04 06:50:37;;;;;;;0.73;0.28;;;;;;;5.97;50.95;102978.53;4990874;28;20050;-81
2023/05/04 06:53:08;;;;;;;1.85;0.20;;;;;;;5.99;51.00;102974.28;4989801;28;20122;-81
2023/05/04 06:55:35;;;;;;;2.42;0.20;;;;;;;6.02;51.56;102978.72;4993519;28;20054;-80
2023/05/04 06:58:03;;;;;;;1.48;0.40;;;;;;;6.05;51.70;102978.81;4993709;28;20165;-80
2023/05/04 07:00:30;;;;;;;2.78;0.40;;;;;;;6.08;51.77;102977.22;4994246;28;20061;-81
2023/05/04 07:02:57;;;;;;;1.75;0.30;;;;;;;6.14;51.17;102984.31;4993081;28;20042;-81
2023/05/04 07:05:24;;;;;;;0.47;0.40;;;;;;;6.20;51.33;102974.16;4996000;28;20043;-81
2023/05/04 07:07:53;;;;;;;0.45;0.30;;;;;;;6.25;50.50;102972.59;4992544;28;20043;-81
2023/05/04 07:10:19;;;;;;;1.42;0.32;;;;;;;6.31;50.24;102977.13;4993538;28;20050;-81
2023/05/04 07:12:47;;;;;;;1.00;0.50;;;;;;;6.39;50.29;102969.63;4988791;28;20046;-81
2023/05/04 07:15:14;;;;;;;2.60;1.15;;;;;;;6.46;49.25;102971.56;4995374;28;20047;-81
2023/05/04 07:17:42;;;;;;;3.63;1.15;;;;;;;6.51;49.47;102981.28;4991178;28;20060;-81
2023/05/04 07:20:10;;;;;;;2.15;0.32;;;;;;;6.58;47.60;102976.31;4992013;28;20038;-81
2023/05/04 07:22:36;;;;;;;1.13;0.30;;;;;;;6.69;48.04;102974.97;4994445;28;20054;-80
2023/05/04 07:25:06;;;;;;;0.57;0.20;;;;;;;6.76;48.81;102977.78;4992502;28;20047;-80
2023/05/04 07:27:33;;;;;;;0.90;0.30;;;;;;;6.85;48.25;102973.72;4991282;28;20046;-80
2023/05/04 07:30:01;;;;;;;0.88;0.50;;;;;;;6.92;48.61;102973.97;4992783;28;20816;-83
2023/05/04 07:32:28;;;;;;;3.30;0.20;;;;;;;7.02;48.12;102976.88;4992315;28;20499;-81
2023/05/04 07:34:55;;;;;;;1.25;0.40;;;;;;;7.11;48.88;102972.81;4994021;28;20052;-81
2023/05/04 07:37:22;;;;;;;0.52;0.40;;;;;;;7.22;45.55;102983.56;4991305;28;20049;-80
2023/05/04 07:39:49;;;;;;;2.55;0.20;;;;;;;7.31;46.13;102982.94;4991945;28;20042;-81
2023/05/04 07:42:17;;;;;;;0.20;0.10;;;;;;;7.46;44.95;102983.44;4991281;28;20042;-82
2023/05/04 07:44:44;;;;;;;1.52;0.20;;;;;;;7.64;45.96;102970.94;4992447;28;20057;-81
2023/05/04 07:47:11;;;;;;;0.28;0.20;;;;;;;7.77;44.77;102982.59;4993442;28;20077;-82
2023/05/04 07:49:38;;;;;;;1.45;0.20;;;;;;;7.87;44.79;102982.00;4988799;28;20043;-81
2023/05/04 07:52:05;;;;;;;0.10;0.10;;;;;;;7.98;44.86;102978.84;4988963;28;20061;-81
2023/05/04 07:54:32;;;;;;;0.88;0.30;;;;;;;8.06;43.34;102982.53;4994592;28;20049;-81
2023/05/04 07:57:02;;;;;;;1.02;0.20;;;;;;;8.15;43.91;102977.56;4993245;28;20042;-81
2023/05/04 07:59:30;;;;;;;0.77;0.13;;;;;;;8.26;43.23;102983.06;4994813;28;20051;-83
2023/05/04 08:01:57;;;;;;;0.20;0.10;;;;;;;8.34;42.75;102979.81;4991039;28;20498;-83
2023/05/04 08:04:24;;;;;;;1.33;0.47;;;;;;;8.47;42.32;102980.16;4994362;28;20057;-84
2023/05/04 08:06:51;;;;;;;0.50;0.20;;;;;;;8.58;41.82;102983.06;4989829;28;20054;-84
2023/05/04 08:09:18;;;;;;;0.30;0.10;;;;;;;8.65;42.10;102969.31;4990699;28;20045;-83
2023/05/04 08:11:46;;;;;;;0.50;0.10;;;;;;;8.74;40.43;102975.66;4993594;28;20043;-81
2023/05/04 08:14:12;;;;;;;0.50;0.22;;;;;;;8.80;41.95;102985.34;4991539;28;20054;-84
2023/05/04 08:16:41;;;;;;;2.47;0.10;;;;;;;8.86;41.32;102979.41;4991981;28;20050;-83
2023/05/04 08:19:08;;;;;;;0.93;0.10;;;;;;;8.91;41.08;102977.78;4994114;28;20051;-83
2023/05/04 08:21:35;;;;;;;1.85;0.20;;;;;;;8.94;41.48;102985.69;4987215;28;20423;-79
2023/05/04 08:24:03;;;;;;;0.40;0.10;;;;;;;8.98;40.78;102985.78;4991990;28;20053;-81
2023/05/04 08:26:30;;;;;;;0.20;0.10;;;;;;;9.05;40.45;102980.69;4987941;28;20525;-77
2023/05/04 08:29:06;;;;;;;6.18;0.20;;;;;;;9.06;40.22;102972.94;4993282;28;20051;-83
2023/05/04 08:31:33;;;;;;;5.35;0.43;;;;;;;9.14;40.49;102981.81;4993103;28;20101;-82
2023/05/04 08:34:02;;;;;;;0.28;0.10;;;;;;;9.18;40.06;102978.41;4991780;28;20689;-80
2023/05/04 08:36:29;;;;;;;1.67;0.10;;;;;;;9.22;39.27;102984.56;4991515;28;20100;-82
2023/05/04 08:38:56;;;;;;;0.70;0.17;;;;;;;9.24;40.02;102978.53;4993691;28;20050;-82
2023/05/04 08:41:23;;;;;;;0.20;0.10;;;;;;;9.27;38.15;102993.38;4984075;28;20430;-77
2023/05/04 08:43:50;;;;;;;0.95;0.10;;;;;;;9.27;38.37;102987.28;4993101;28;20089;-79
2023/05/04 08:46:17;;;;;;;0.40;0.20;;;;;;;9.29;37.43;102993.44;4990597;28;20038;-81
2023/05/04 08:48:45;;;;;;;2.30;1.05;;;;;;;9.30;37.80;102987.34;4991332;28;20499;-75
2023/05/04 08:51:14;;;;;;;1.58;0.32;;;;;;;9.35;37.40;102990.94;4989877;28;20046;-75
2023/05/04 08:53:45;;;;;;;0.40;0.20;;;;;;;9.38;37.34;102991.03;4987828;28;20065;-75
2023/05/04 08:56:15;;;;;;;2.97;0.20;;;;;;;9.39;38.60;102987.56;4988795;28;20050;-77
2023/05/04 08:58:48;;;;;;;1.58;0.15;;;;;;;9.47;38.88;102986.00;4991393;28;20046;-77
2023/05/04 09:01:16;;;;;;;0.43;0.20;;;;;;;9.51;37.30;102995.66;4992466;28;20046;-77
2023/05/04 09:03:44;;;;;;;0.40;0.13;;;;;;;9.52;37.05;102994.81;4991016;28;20054;-78
2023/05/04 09:06:13;;;;;;;0.30;0.10;;;;;;;9.45;36.32;102988.59;4991457;28;20126;-77
2023/05/04 09:08:40;;;;;;;0.45;0.13;;;;;;;9.48;35.49;102986.88;4990867;28;20042;-77
2023/05/04 09:11:07;;;;;;;0.80;0.20;;;;;;;9.45;36.62;102990.31;4988880;28;20096;-78
2023/05/04 09:13:34;;;;;;;2.10;0.10;;;;;;;9.42;36.08;102990.22;4987896;28;20058;-77
2023/05/04 09:16:02;;;;;;;1.10;0.17;;;;;;;9.44;36.59;102991.16;4990049;28;20569;-78
2023/05/04 09:18:37;;;;;;;0.60;0.20;;;;;;;9.46;36.53;102997.28;4991466;28;20050;-77
2023/05/04 09:21:04;;;;;;;2.95;1.17;;;;;;;9.45;37.39;103004.25;4991351;28;20097;-77
2023/05/04 09:23:33;;;;;;;1.00;0.43;;;;;;;9.44;36.84;103001.59;4989988;28;20062;-77
2023/05/04 09:26:00;;;;;;;0.82;0.30;;;;;;;9.43;36.88;102999.84;4988162;28;20073;-79
2023/05/04 09:28:38;;;;;;;0.95;0.30;;;;;;;9.43;37.10;102984.19;4984470;28;20042;-77
2023/05/04 09:31:06;;;;;;;0.30;0.20;;;;;;;9.44;35.83;102996.38;4989889;28;20050;-79
2023/05/04 09:33:33;;;;;;;1.65;0.10;;;;;;;9.40;36.64;102989.34;4990737;28;20710;-77
2023/05/04 09:36:13;;;;;;;0.30;0.10;;;;;;;9.43;36.53;103005.06;4985966;28;20046;-77
2023/05/04 09:38:41;;;;;;;0.55;0.10;;;;;;;9.40;36.98;103005.84;4989115;28;20096;-77
2023/05/04 09:41:08;;;;;;;0.82;0.10;;;;;;;9.30;36.63;103006.50;4986628;28;20050;-78
2023/05/04 09:43:39;;;;;;;0.50;0.10;;;;;;;9.35;36.53;103011.81;4991047;28;20058;-75
2023/05/04 09:46:07;;;;;;;0.30;0.10;;;;;;;9.31;36.69;103016.09;4987615;28;20130;-78
2023/05/04 09:48:35;;;;;;;0.90;0.10;;;;;;;9.30;36.80;103018.66;4989592;28;20042;-79
2023/05/04 09:51:05;;;;;;;1.13;0.10;;;;;;;9.30;36.71;103013.44;4990537;28;20070;-78
2023/05/04 09:53:32;;;;;;;1.10;0.40;;;;;;;9.30;35.26;103008.22;4987907;28;20077;-76
2023/05/04 09:56:10;;;;;;;1.58;0.20;;;;;;;9.33;35.66;102995.25;4986750;28;20483;-79
2023/05/04 09:58:37;;;;;;;0.63;0.20;;;;;;;9.35;35.08;103001.38;4986716;28;20442;-80
2023/05/04 10:01:04;;;;;;;1.50;0.50;;;;;;;9.35;34.48;103002.25;4988305;28;20853;-80
2023/05/04 10:03:32;;;;;;;0.60;0.30;;;;;;;9.34;34.17;103007.47;4990755;28;20046;-79
2023/05/04 10:05:59;;;;;;;1.38;0.30;;;;;;;9.33;34.29;103010.91;4986780;28;20488;-79
2023/05/04 10:08:27;;;;;;;0.90;0.30;;;;;;;9.34;34.42;103015.28;4989235;28;20038;-79
2023/05/04 10:10:55;;;;;;;0.15;0.10;;;;;;;9.36;34.78;103013.56;4990552;28;20533;-78
2023/05/04 10:13:23;;;;;;;0.17;0.10;;;;;;;9.36;35.31;103009.25;4987835;28;20065;-78
2023/05/04 10:16:02;;;;;;;0.08;0.08;;;;;;;9.38;36.12;103006.66;4991250;28;20054;-79
2023/05/04 10:18:44;;;;;;;0.17;0.10;;;;;;;9.41;35.60;103001.50;4989782;28;20038;-79
2023/05/04 10:21:29;;;;;;;0.20;0.10;;;;;;;9.46;34.76;102995.56;4988913;28;20050;-80
2023/05/04 10:24:31;;;;;;;0.10;0.10;;;;;;;9.50;35.42;102996.50;4983184;28;20043;-79
2023/05/04 10:27:05;;;;;;;0.22;0.10;;;;;;;9.51;34.51;103003.50;4981421;28;20046;-79
2023/05/04 10:29:34;;;;;;;0.70;0.10;;;;;;;9.46;33.84;102999.91;4989861;28;20097;-79
2023/05/04 10:32:01;;;;;;;0.25;0.10;;;;;;;9.53;33.01;103017.44;4994475;28;20051;-80
2023/05/04 10:34:29;;;;;;;0.10;0.03;;;;;;;9.52;32.65;103010.47;4993372;28;20170;-77
2023/05/04 10:36:57;;;;;;;0.20;0.10;;;;;;;9.52;32.69;103013.06;4988500;28;20042;-77
2023/05/04 10:39:26;;;;;;;0.50;0.10;;;;;;;9.46;31.60;103010.34;4992405;28;20515;-76
2023/05/04 10:42:00;;;;;;;0.20;0.10;;;;;;;9.44;31.27;103006.81;4987872;28;20400;-78
2023/05/04 10:44:28;;;;;;;0.10;0.10;;;;;;;9.43;32.63;102995.50;4993121;28;20521;-78
2023/05/04 10:47:04;;;;;;;0.30;0.13;;;;;;;9.44;32.25;103001.59;4995051;28;20046;-83
2023/05/04 10:49:32;;;;;;;0.25;0.10;;;;;;;9.35;31.80;102998.78;4993403;28;20046;-82
2023/05/04 10:52:09;;;;;;;0.60;0.20;;;;;;;9.39;31.86;103013.63;4994953;28;20046;-82
2023/05/04 10:54:37;;;;;;;1.67;0.10;;;;;;;9.39;32.35;103001.50;4987889;28;20049;-76
2023/05/04 10:57:05;;;;;;;0.15;0.10;;;;;;;9.40;32.42;103011.06;4985696;28;20054;-80
2023/05/04 10:59:32;;;;;;;2.05;0.20;;;;;;;9.41;31.53;103012.81;4995571;28;20066;-76
2023/05/04 11:02:00;;;;;;;2.90;0.30;;;;;;;9.41;32.03;103019.78;4992586;28;20548;-78
2023/05/04 11:04:29;;;;;;;0.15;0.10;;;;;;;9.36;31.33;103018.78;4992586;28;20499;-79
2023/05/04 11:06:57;;;;;;;0.30;0.10;;;;;;;9.33;32.24;103014.38;4992370;28;20046;-78
2023/05/04 11:09:25;;;;;;;0.30;0.10;;;;;;;9.29;31.66;103016.91;4992570;28;20517;-78
2023/05/04 11:11:53;;;;;;;0.20;0.10;;;;;;;9.28;32.00;103015.13;4995681;28;20046;-79
2023/05/04 11:14:26;;;;;;;3.15;0.10;;;;;;;9.26;31.84;103012.50;4986840;28;20050;-78
2023/05/04 11:16:53;;;;;;;0.65;0.10;;;;;;;9.26;31.99;103014.22;4995329;28;20046;-78
2023/05/04 11:19:20;;;;;;;1.23;0.10;;;;;;;9.21;32.46;103009.78;4986936;28;20084;-78
2023/05/04 11:21:50;;;;;;;0.10;0.10;;;;;;;9.20;32.32;103008.03;4994412;28;20057;-79
2023/05/04 11:24:17;;;;;;;1.13;0.10;;;;;;;9.20;32.23;103008.03;4994475;28;20069;-79
2023/05/04 11:26:48;;;;;;;0.88;0.10;;;;;;;9.18;32.57;103012.31;4993706;28;20521;-79
2023/05/04 11:29:15;;;;;;;0.25;0.10;;;;;;;9.18;32.86;103004.50;4993322;28;20046;-78
2023/05/04 11:31:43;;;;;;;1.50;0.17;;;;;;;9.19;32.89;103010.56;4989240;28;20062;-78
2023/05/04 11:34:20;;;;;;;1.25;0.10;;;;;;;9.18;32.96;103014.03;4991300;28;20050;-79
2023/05/04 11:36:49;;;;;;;0.40;0.20;;;;;;;9.19;31.82;103016.69;4992821;28;20050;-78
2023/05/04 11:39:16;;;;;;;0.25;0.10;;;;;;;9.18;32.49;103014.91;4987662;28;20050;-79